Map

Track Data

SID SEASON NUMBER BASIN SUBBASIN NAME ISO_TIME NATURE LAT LON WMO_WIND WMO_PRES WMO_AGENCY TRACK_TYPE DIST2LAND LANDFALL IFLAG USA_AGENCY USA_ATCF_ID USA_LAT USA_LON USA_RECORD USA_STATUS USA_WIND USA_PRES USA_SSHS USA_R34_NE USA_R34_SE USA_R34_SW USA_R34_NW USA_R50_NE USA_R50_SE USA_R50_SW USA_R50_NW USA_R64_NE USA_R64_SE USA_R64_SW USA_R64_NW USA_POCI USA_ROCI USA_RMW USA_EYE TOKYO_LAT TOKYO_LON TOKYO_GRADE TOKYO_WIND TOKYO_PRES TOKYO_R50_DIR TOKYO_R50_LONG TOKYO_R50_SHORT TOKYO_R30_DIR TOKYO_R30_LONG TOKYO_R30_SHORT TOKYO_LAND CMA_LAT CMA_LON CMA_CAT CMA_WIND CMA_PRES HKO_LAT HKO_LON HKO_CAT HKO_WIND HKO_PRES NEWDELHI_LAT NEWDELHI_LON NEWDELHI_GRADE NEWDELHI_WIND NEWDELHI_PRES NEWDELHI_CI NEWDELHI_DP NEWDELHI_POCI REUNION_LAT REUNION_LON REUNION_TYPE REUNION_WIND REUNION_PRES REUNION_TNUM REUNION_CI REUNION_RMW REUNION_R34_NE REUNION_R34_SE REUNION_R34_SW REUNION_R34_NW REUNION_R50_NE REUNION_R50_SE REUNION_R50_SW REUNION_R50_NW REUNION_R64_NE REUNION_R64_SE REUNION_R64_SW REUNION_R64_NW BOM_LAT BOM_LON BOM_TYPE BOM_WIND BOM_PRES BOM_TNUM BOM_CI BOM_RMW BOM_R34_NE BOM_R34_SE BOM_R34_SW BOM_R34_NW BOM_R50_NE BOM_R50_SE BOM_R50_SW BOM_R50_NW BOM_R64_NE BOM_R64_SE BOM_R64_SW BOM_R64_NW BOM_ROCI BOM_POCI BOM_EYE BOM_POS_METHOD BOM_PRES_METHOD NADI_LAT NADI_LON NADI_CAT NADI_WIND NADI_PRES WELLINGTON_LAT WELLINGTON_LON WELLINGTON_WIND WELLINGTON_PRES DS824_LAT DS824_LON DS824_STAGE DS824_WIND DS824_PRES TD9636_LAT TD9636_LON TD9636_STAGE TD9636_WIND TD9636_PRES TD9635_LAT TD9635_LON TD9635_WIND TD9635_PRES TD9635_ROCI NEUMANN_LAT NEUMANN_LON NEUMANN_CLASS NEUMANN_WIND NEUMANN_PRES MLC_LAT MLC_LON MLC_CLASS MLC_WIND MLC_PRES USA_GUST BOM_GUST BOM_GUST_PER REUNION_GUST REUNION_GUST_PER USA_SEAHGT USA_SEARAD_NE USA_SEARAD_SE USA_SEARAD_SW USA_SEARAD_NW STORM_SPEED STORM_DIR
1963123S13163 1963 40 SP MM NOT_NAMED 1963-05-02 23:00:00 NR -13.0000 162.850 1009 bom main 254 252 ______O___O___ -1 -13.0000 162.900 1009 -13.0000 162.800 1 15 4 268
1963123S13163 1963 40 SP MM NOT_NAMED 1963-05-03 00:00:00 TS -13.0027 162.776 main 252 246 O_____P__OP_O_ jtwc_sh SH491963 -13.0000 162.700 15 -1 -13.0108 162.769 1009 -13.0000 162.800 TC 15 1009 -13.0002 162.683 1 15 -13.0000 163.100 TC 15 1009 6 268
1963123S13163 1963 40 SP MM NOT_NAMED 1963-05-03 03:00:00 TS -13.0119 162.409 main 246 246 P_____P__PP_P_ SH491963 -13.0001 162.350 17 -1 -13.0419 162.378 1009 -13.0318 162.408 TC 15 1009 -13.0004 162.333 1 16 -12.9877 162.690 TC 15 1009 7 268
1963123S13163 1963 40 SP MM NOT_NAMED 1963-05-03 06:00:00 TS -13.0230 162.044 main 246 246 O_____P__PP_O_ jtwc_sh SH491963 -13.0000 162.000 20 -1 -13.0692 161.997 1009 -13.0606 162.023 TC 15 1009 -13.0003 161.983 1 17 -13.0000 162.300 TC 15 1009 7 268
1963123S13163 1963 40 SP MM NOT_NAMED 1963-05-03 09:00:00 TS -13.0374 161.693 main 246 246 P_____P__PP_P_ SH491963 -13.0000 161.650 20 -1 -13.0904 161.631 1009 -13.0841 161.651 TC 15 1009 -13.0001 161.633 1 19 -13.0499 161.943 TC 15 1009 7 268
1963123S13163 1963 40 SP MM NOT_NAMED 1963-05-03 11:00:00 TS -13.0470 161.460 1009 bom main 248 248 P_____O__PO_P_ SH491963 -13.0000 161.417 20 -1 -13.1000 161.400 1009 -13.0957 161.414 TC 15 1009 -13.0000 161.400 1 20 -13.0864 161.714 TC 15 1009 7 268
1963123S13163 1963 40 SP MM NOT_NAMED 1963-05-03 12:00:00 TS -13.0505 161.345 main 263 263 O_____P__OP_O_ jtwc_sh SH491963 -13.0000 161.300 20 -1 -13.1032 161.289 1008 -13.1000 161.300 TC 15 1009 -12.9999 161.283 1 20 -13.1000 161.600 TC 15 1009 7 269
1963123S13163 1963 40 SP MM NOT_NAMED 1963-05-03 15:00:00 TS -13.0536 161.003 main 271 271 P_____P__PP_P_ SH491963 -13.0000 160.950 20 -1 -13.1075 160.967 1008 -13.1069 160.973 TC 15 1008 -12.9998 160.933 1 20 -13.1075 161.242 TC 15 1008 7 270
1963123S13163 1963 40 SP MM NOT_NAMED 1963-05-03 18:00:00 TS -13.0522 160.666 main 284 284 O_____P__PP_O_ jtwc_sh SH491963 -13.0000 160.600 20 -1 -13.1062 160.652 1007 -13.1070 160.657 TC 15 1008 -12.9998 160.583 1 20 -13.1000 160.900 TC 15 1008 7 270
1963123S13163 1963 40 SP MM NOT_NAMED 1963-05-03 21:00:00 TS -13.0510 160.335 main 304 304 P_____P__PP_P_ SH491963 -13.0000 160.250 20 -1 -13.1024 160.329 1007 -13.1037 160.338 TC 15 1007 -12.9999 160.233 1 20 -13.0999 160.607 TC 15 1007 7 270
1963123S13163 1963 40 SP MM NOT_NAMED 1963-05-03 23:00:00 TS -13.0502 160.110 1007 bom main 317 308 P_____O__PO_P_ SH491963 -13.0000 160.017 20 -1 -13.1000 160.100 1007 -13.1011 160.116 TC 15 1007 -13.0000 160.000 1 20 -13.0999 160.409 TC 15 1007 7 270
1963123S13163 1963 40 SP EA NOT_NAMED 1963-05-04 00:00:00 TS -13.0498 159.994 main 314 314 O_____P__OP_O_ jtwc_sh SH491963 -13.0000 159.900 20 -1 -13.1000 159.976 1007 -13.1000 160.000 TC 15 1007 -12.9987 159.886 1 20 -13.1000 160.300 TC 15 1007 7 270
1963123S13163 1963 40 SP EA NOT_NAMED 1963-05-04 03:00:00 TS -13.0490 159.627 main 339 339 P_____P__PP_P_ SH491963 -13.0000 159.550 20 -1 -13.1000 159.585 1007 -13.1000 159.618 TC 15 1007 -12.9943 159.544 1 20 -13.1000 159.915 TC 15 1007 7 270
1963123S13163 1963 40 SP EA NOT_NAMED 1963-05-04 06:00:00 TS -13.0486 159.249 main 364 364 O_____P__PP_O_ jtwc_sh SH491963 -13.0000 159.200 20 -1 -13.1000 159.179 1007 -13.1000 159.215 TC 15 1007 -12.9917 159.199 1 20 -13.1000 159.500 TC 15 1007 7 270
1963123S13163 1963 40 SP EA NOT_NAMED 1963-05-04 09:00:00 TS -13.0465 158.871 main 371 371 P_____P__PP_P_ SH491963 -12.9924 158.857 20 -1 -13.1000 158.769 1007 -13.1000 158.805 TC 15 1007 -12.9941 158.845 1 20 -13.1000 159.092 TC 15 1007 7 270
1963123S13163 1963 40 SP EA NOT_NAMED 1963-05-04 11:00:00 TS -13.0481 158.618 1008 bom main 381 381 P_____O__PO_P_ SH491963 -12.9942 158.622 20 -1 -13.1000 158.500 1008 -13.1000 158.534 TC 15 1007 -13.0000 158.600 1 20 -13.1000 158.828 TC 15 1007 7 269
1963123S13163 1963 40 SP EA NOT_NAMED 1963-05-04 12:00:00 TS -13.0506 158.491 main 395 395 O_____P__OP_O_ jtwc_sh SH491963 -13.0000 158.500 20 -1 -13.0987 158.374 1008 -13.1000 158.400 TC 15 1008 -13.0049 158.473 1 19 -13.1000 158.700 TC 15 1008 7 268
1963123S13163 1963 40 SP EA NOT_NAMED 1963-05-04 15:00:00 TS -13.0692 158.113 main 413 413 P_____P__PP_P_ SH491963 -13.0500 158.108 17 -1 -13.0942 158.003 1008 -13.0956 158.026 TC 15 1008 -13.0253 158.083 1 18 -13.0999 158.350 TC 15 1008 7 267
1963123S13163 1963 40 SP EA NOT_NAMED 1963-05-04 18:00:00 TS -13.0892 157.729 main 434 434 O_____P__PP_O_ jtwc_sh SH491963 -13.1000 157.700 15 -1 -13.0916 157.634 1008 -13.0921 157.657 TC 15 1008 -13.0516 157.680 1 17 -13.1000 158.000 TC 15 1008 8 268
1963123S13163 1963 40 SP EA NOT_NAMED 1963-05-04 21:00:00 TS -13.0945 157.338 main 459 459 P_____P__PP_P_ SH491963 -13.0999 157.300 15 -1 -13.0941 157.259 1008 -13.0925 157.285 TC 15 1008 -13.0806 157.272 1 15 -13.0999 157.615 TC 15 1008 8 269
1963123S13163 1963 40 SP EA NOT_NAMED 1963-05-04 23:00:00 TS -13.0984 157.073 1008 bom main 472 472 P_____O__PO_P_ SH491963 -13.0969 157.033 15 -1 -13.1000 157.000 1008 -13.0965 157.030 TC 15 1008 -13.1000 157.000 1 15 -13.1000 157.342 TC 15 1008 8 269
1963123S13163 1963 40 SP EA NOT_NAMED 1963-05-05 00:00:00 TS -13.1008 156.939 main 486 486 O_____P__OP_O_ jtwc_sh SH491963 -13.1000 156.900 15 -1 -13.1000 156.864 1008 -13.1000 156.900 TC 15 1008 -13.1046 156.868 1 15 -13.1000 157.200 TC 15 1008 8 268
1963123S13163 1963 40 SP EA NOT_NAMED 1963-05-05 03:00:00 TS -13.1170 156.525 main 515 515 P_____P__PP_P_ SH491963 -13.1499 156.500 15 -1 -13.1036 156.444 1008 -13.0893 156.485 TC 15 1008 -13.1168 156.472 1 15 -13.0925 156.750 TC 15 1008 8 267
1963123S13163 1963 40 SP EA NOT_NAMED 1963-05-05 06:00:00 TS -13.1406 156.107 main 537 537 O_____P__PP_O_ jtwc_sh SH491963 -13.2000 156.100 15 -1 -13.1198 156.013 1008 -13.0899 156.057 TC 15 1008 -13.1341 156.074 1 15 -13.1000 156.300 TC 15 1008 8 267
1963123S13163 1963 40 SP EA NOT_NAMED 1963-05-05 09:00:00 TS -13.1632 155.698 main 563 563 P_____P__PP_P_ SH491963 -13.1999 155.707 15 -1 -13.1578 155.583 1008 -13.1206 155.626 TC 15 1008 -13.1660 155.672 1 15 -13.1349 155.892 TC 15 1008 8 266
1963123S13163 1963 40 SP EA NOT_NAMED 1963-05-05 11:00:00 TS -13.1893 155.425 1008 bom main 578 578 P_____O__PO_P_ SH491963 -13.1969 155.439 15 -1 -13.2000 155.300 1008 -13.1669 155.341 TC 15 1008 -13.2000 155.400 1 15 -13.1750 155.631 TC 15 1008 8 265
1963123S13163 1963 40 SP EA NOT_NAMED 1963-05-05 12:00:00 TS -13.1971 155.284 main 579 542 O_____P__OP_O_ jtwc_sh SH491963 -13.2000 155.300 15 -1 -13.1938 155.153 1008 -13.2000 155.200 TC 15 1008 -13.1889 155.252 1 14 -13.2000 155.500 TC 15 1008 8 267
1963123S13163 1963 40 SP EA NOT_NAMED 1963-05-05 15:00:00 TS -13.2184 154.844 main 532 503 P_____P__PP_P_ SH491963 -13.2200 154.850 12 -1 -13.1832 154.714 1008 -13.2443 154.756 TC 15 1008 -13.1579 154.797 1 13 -13.2849 155.100 TC 15 1008 9 263
1963123S13163 1963 40 SP EA NOT_NAMED 1963-05-05 18:00:00 TS -13.2977 154.412 main 503 476 O_____P__PP_O_ jtwc_sh SH491963 -13.3000 154.400 10 -1 -13.2425 154.295 1008 -13.3529 154.324 TC 15 1008 -13.1909 154.350 1 12 -13.4000 154.700 TC 15 1008 8 255
1963123S13163 1963 40 SP EA NOT_NAMED 1963-05-05 21:00:00 TS -13.4412 154.005 main 476 476 P_____P__PP_P_ SH491963 -13.4024 153.985 10 -1 -13.4465 153.918 1008 -13.5850 153.931 TC 15 1008 -13.3658 153.940 1 10 -13.4451 154.270 TC 15 1008 9 241
1963123S13163 1963 40 SP EA NOT_NAMED 1963-05-05 23:00:00 TS -13.6413 153.760 1009 bom main 476 476 P_____O__PO_P_ SH491963 -13.5683 153.725 10 -1 -13.7000 153.700 1009 -13.8377 153.702 TC 15 1008 -13.6000 153.700 1 10 -13.5732 154.010 TC 15 1008 10 225
1963123S13163 1963 40 SP EA NOT_NAMED 1963-05-06 00:00:00 TS -13.7866 153.645 main 477 477 O_____P__OP_O_ jtwc_sh SH491963 -13.7000 153.600 10 -1 -13.8691 153.601 1009 -14.0000 153.600 TC 15 1009 -13.7507 153.571 1 10 -13.7000 153.900 TC 15 1009 13 209
1963123S13163 1963 40 SP EA NOT_NAMED 1963-05-06 03:00:00 TS -14.4053 153.321 main 510 510 P_____P__PP_P_ SH491963 -14.2726 153.191 10 -1 -14.5260 153.345 1009 -14.6174 153.315 TC 15 1009 -14.3481 153.216 1 10 -14.3949 153.670 TC 15 1009 16 201
1963123S13163 1963 40 SP EA NOT_NAMED 1963-05-06 06:00:00 TS -15.2369 153.081 main 577 577 O_____P__PP_O_ jtwc_sh SH491963 -15.1000 152.900 10 -1 -15.3624 153.143 1009 -15.4206 153.098 TC 15 1009 -15.1385 152.945 1 10 -15.3000 153.500 TC 15 1009 18 192
1963123S13163 1963 40 SP EA NOT_NAMED 1963-05-06 09:00:00 TS -16.1680 152.939 main 630 583 P_____P__PP_P_ SH491963 -16.0600 152.803 10 -1 -16.3211 152.985 1009 -16.3635 152.957 TC 15 1009 -16.0907 152.801 1 10 -16.1126 153.285 TC 15 1009 20 186
1963123S13163 1963 40 SP EA NOT_NAMED 1963-05-06 11:00:00 TS -16.8574 152.910 1009 bom main 575 553 P_____O__PO_P_ SH491963 -16.8031 152.848 10 -1 -17.0000 152.900 1009 -17.0469 152.909 TC 15 1009 -16.8000 152.800 1 10 -16.6912 153.155 TC 15 1009 21 182
1963123S13163 1963 40 SP EA NOT_NAMED 1963-05-06 12:00:00 TS -17.2155 152.907 main 553 484 O_____P__OP_O_ jtwc_sh SH491963 -17.2000 152.900 10 -1 -17.3144 152.807 1009 -17.4000 152.900 TC 15 1009 -17.1783 152.833 1 11 -17.0000 153.100 TC 15 1009 23 179
1963123S13163 1963 40 SP EA NOT_NAMED 1963-05-06 15:00:00 TS -18.3585 152.940 main 479 445 P_____P__PP_P_ SH491963 -18.4850 153.140 15 -1 -18.3334 152.620 1009 -18.4507 152.824 TC 15 1009 -18.4222 153.059 1 14 -17.9747 152.860 TC 15 1009 24 175
1963123S13163 1963 40 SP EA NOT_NAMED 1963-05-06 17:00:00 TS -19.1756 153.078 1009 bom main 436 415 P_____O__PP_P_ SH491963 -19.3707 153.373 18 -1 -19.1000 152.700 1009 -19.2067 152.900 TC 15 1009 -19.3003 153.292 1 17 -18.7050 152.833 TC 15 1009 25 169
1963123S13163 1963 40 SP EA NOT_NAMED 1963-05-06 18:00:00 TS -19.5958 153.197 main 406 352 O_____P__OP_O_ jtwc_sh SH491963 -19.8000 153.500 20 -1 -19.5336 152.855 1009 -19.6000 153.000 TC 15 1009 -19.7414 153.428 1 18 -19.1000 152.900 TC 15 1009 27 160
1963123S13163 1963 40 SP EA NOT_NAMED 1963-05-06 21:00:00 TS -20.8878 153.734 main 348 346 P_____P__PP_P_ SH491963 -21.0098 153.870 22 -1 -20.9210 153.616 1009 -20.8753 153.611 TC 15 1009 -21.0226 153.881 1 22 -20.4886 153.556 TC 15 1009 28 157
1963123S13163 1963 40 SP EA NOT_NAMED 1963-05-06 23:00:00 TS -21.7026 154.162 1009 bom main 358 329 P_____O__PO_P_ SH491963 -21.7530 154.150 24 -1 -21.8000 154.200 1009 -21.7117 154.139 TC 15 1009 -21.8000 154.200 1 25 -21.3977 154.132 TC 15 1009 27 154
1963123S13163 1963 40 SP EA NOT_NAMED 1963-05-07 00:00:00 TS -22.0731 154.364 main 321 258 O_____P__OP_O_ jtwc_sh SH491963 -22.1000 154.300 25 -1 -22.1872 154.435 1008 -22.1000 154.400 TC 15 1009 -22.1515 154.349 1 24 -21.8000 154.400 TC 15 1009 23 153
1963123S13163 1963 40 SP EA NOT_NAMED 1963-05-07 03:00:00 TS -23.0445 154.914 main 258 234 P_____P__PP_P_ SH491963 -23.0750 154.800 22 -1 -23.2063 155.091 1006 -23.1118 155.042 TC 17 1007 -23.1173 154.821 1 23 -22.6817 154.932 TC 17 1007 20 151
1963123S13163 1963 40 SP EA NOT_NAMED 1963-05-07 06:00:00 TS -23.8513 155.427 main 235 235 O_____P__PP_O_ jtwc_sh SH491963 -23.9000 155.300 20 -1 -24.0262 155.651 1004 -23.9366 155.608 TC 20 1005 -23.9451 155.301 1 22 -23.4000 155.400 TC 20 1005 18 150
1963123S13163 1963 40 SP EA NOT_NAMED 1963-05-07 09:00:00 TS -24.5749 155.894 main 256 256 P_____P__PP_P_ SH491963 -24.6473 155.730 20 -1 -24.6653 156.089 1003 -24.5933 156.069 TC 22 1003 -24.6281 155.745 1 20 -24.2678 156.001 TC 22 1003 16 149
1963123S13163 1963 40 SP EA NOT_NAMED 1963-05-07 11:00:00 TS -24.9693 156.155 1002 bom main 281 281 P_____O__PO_P_ SH491963 -25.0421 155.983 20 -1 -25.0000 156.300 1002 -24.9466 156.306 TC 24 1002 -25.0000 156.000 1 20 -24.7849 156.359 TC 24 1002 13 149
1963123S13163 1963 40 SP EA NOT_NAMED 1963-05-07 12:00:00 TS -25.1339 156.266 main 292 292 O_____P__OP_O_ jtwc_sh SH491963 -25.2000 156.100 20 -1 -25.1530 156.379 1001 -25.1000 156.400 TC 25 1002 -25.1507 156.116 1 22 -25.0000 156.500 TC 25 1002 9 147
1963123S13163 1963 40 SP EA NOT_NAMED 1963-05-07 15:00:00 TS -25.4827 156.525 main 316 316 P_____P__PP_P_ SH491963 -25.4950 156.453 27 -1 -25.5066 156.528 1000 -25.4887 156.594 TC 27 1001 -25.4865 156.414 1 28 -25.4246 156.711 TC 27 1001 7 146
1963123S13163 1963 40 SP EA NOT_NAMED 1963-05-07 17:00:00 TS -25.6522 156.646 1000 bom main 330 330 P_____O__PP_P_ SH491963 -25.6262 156.634 32 -1 -25.7000 156.600 1000 4 -25.6969 156.668 TC 29 1000 -25.6516 156.568 1 32 -25.6125 156.771 TC 29 1000 6 149
1963123S13163 1963 40 SP EA NOT_NAMED 1963-05-07 18:00:00 TS -25.7371 156.698 main 340 340 O_____P__OP_O_ jtwc_sh SH491963 -25.7000 156.700 35 0 -25.7948 156.658 1000 -25.8000 156.700 TC 30 1000 -25.7279 156.631 1 34 -25.7000 156.800 TC 30 1000 6 155
1963123S13163 1963 40 SP EA NOT_NAMED 1963-05-07 21:00:00 TS -26.0197 156.836 main 358 358 P_____P__PP_P_ SH491963 -25.9899 156.810 40 0 -26.0727 156.823 1000 -26.1255 156.825 TC 30 1000 -25.9779 156.762 1 40 -25.9625 156.987 TC 32 7 163
1963123S13163 1963 40 SP EA NOT_NAMED 1963-05-07 23:00:00 TS -26.2534 156.881 1001 bom main 377 375 P_____O__PO_P_ SH491963 -26.2438 156.814 43 0 -26.3000 156.900 1001 -26.3647 156.883 TC 30 1000 -26.2000 156.800 2 45 -26.1684 157.078 TC 34 8 175
1963123S13163 1963 40 SP EA NOT_NAMED 1963-05-08 00:00:00 TS -26.4060 156.887 main 375 346 O_____P__OP_O_ jtwc_sh SH491963 -26.4000 156.800 45 0 -26.4591 156.916 1001 -26.5000 156.900 TC 30 1001 -26.3770 156.805 2 44 -26.3000 157.100 TC 35 11 184
1963123S13163 1963 40 SP EA NOT_NAMED 1963-05-08 03:00:00 TS -26.9814 156.837 main 342 311 P_____P__PP_P_ SH491963 -27.0125 156.723 42 0 -27.0451 156.894 1001 -26.9859 156.900 TC 27 1001 -26.9849 156.753 2 42 -26.8475 157.030 TC 32 12 187
1963123S13163 1963 40 SP EA NOT_NAMED 1963-05-08 06:00:00 TS -27.6407 156.728 main 311 293 O_____P__PP_O_ jtwc_sh SH491963 -27.7000 156.600 40 0 -27.7222 156.801 1002 -27.5697 156.837 TC 25 1002 -27.6521 156.633 2 40 -27.5000 156.900 TC 30 13 188
1963123S13163 1963 40 SP EA NOT_NAMED 1963-05-08 09:00:00 TS -28.3009 156.616 main 293 282 P_____P__PP_P_ SH491963 -28.3375 156.493 37 0 -28.3971 156.678 1003 -28.2186 156.730 TC 22 1003 -28.3064 156.488 2 39 -28.1875 156.842 TC 25 13 189
1963123S13163 1963 40 SP EA NOT_NAMED 1963-05-08 11:00:00 TS -28.7094 156.544 1004 bom main 282 281 P_____O__PO_P_ SH491963 -28.7255 156.428 35 0 -28.8000 156.600 1004 -28.6713 156.645 TC 20 1003 -28.7000 156.400 2 38 -28.6150 156.814 TC 21 12 188
1963123S13163 1963 40 SP EA NOT_NAMED 1963-05-08 12:00:00 TS -28.8904 156.522 main 281 281 O_____P__OP_O_ jtwc_sh SH491963 -28.9000 156.400 35 0 -28.9778 156.567 1004 -28.9000 156.600 TC 20 1004 -28.8767 156.363 2 37 -28.8000 156.800 MM 20 1004 9 186
1963123S13163 1963 40 SP EA NOT_NAMED 1963-05-08 15:00:00 TS -29.3211 156.466 main 284 284 P_____P___P_P_ SH491963 -29.3375 156.340 35 0 -29.4213 156.492 1004 TC -29.3306 156.282 2 35 -29.1950 156.750 MM 20 1004 8 184
1963123S13163 1963 40 SP EA NOT_NAMED 1963-05-08 18:00:00 TS -29.6475 156.453 main 291 291 O_____P___P_O_ jtwc_sh SH491963 -29.7000 156.300 35 0 -29.7604 156.444 1004 TC -29.6964 156.236 2 33 -29.5000 156.700 TC 20 1004 6 182
1963123S13163 1963 40 SP EA NOT_NAMED 1963-05-08 21:00:00 TS -29.9411 156.457 main 301 297 ______P___P_P_ SH491963 -1 -30.0343 156.415 1004 TC -30.0071 156.211 2 31 -29.8350 156.650 TC 20 1004 6 179
1963123S13163 1963 40 SP EA NOT_NAMED 1963-05-08 23:00:00 TS -30.1384 156.458 1005 bom main 308 308 ______O___O_P_ SH491963 -1 -30.2000 156.400 1005 TC -30.2000 156.200 1 30 -30.0769 156.617 TC 20 1004 6 154
1963123S13163 1963 40 SP EA NOT_NAMED 1963-05-09 00:00:00 TS -30.2000 156.600 main 318 ____________O_ -1 1 -30.2000 156.600 TC 20 1005 8 117

Digital Typhoon Data and Search

About IBTrACS Database

This database is a web-friendly format of International Best Track Archive for Climate Stewardship (IBTrACS), a global best track data archive curated by NOAA dating back to 1842.

Updated: 2021-10-21